Orleans, Nebraska
Current Conditions -  °F | °C
As of 10:35 PM on Thursday 20 Nov 2014 (Local Time) from KHDE Reporting Station
Clear Clear  
Wind Chill: 14°   Ceiling: Unl
Heat Index: 21°   Visibility: 10mi
Dew Point: 16°   Wind: 6mph
Humidity: 78%   Direction: 150°SSE
Pressure: 30.11"   Gusts: NA
Location:  40.13°N, 99.46°W
Report Text: KHDE 210435Z AUTO 15005KT 10SM CLR M06/M09 A3011 RMK AO2 T10591091
Loading
Personal Weather Stations






























Interactive Weather Map New forecast layout! Learn more

10-Day Weather Forecast

Advertisements
Track Severe Weather on mobile